createdAt,value
2022-12-18T00:02:00.917Z,101949.50
2022-12-18T00:04:28.964Z,101951.03
2022-12-18T00:06:56.408Z,101948.38
2022-12-18T00:09:24.696Z,101947.78
2022-12-18T00:11:52.253Z,101950.66
2022-12-18T00:14:19.587Z,101953.13
2022-12-18T00:16:48.710Z,101960.28
2022-12-18T00:19:16.397Z,101972.97
2022-12-18T00:21:44.343Z,101979.16
2022-12-18T00:24:12.555Z,101977.50
2022-12-18T00:26:40.366Z,101982.38
2022-12-18T00:29:08.935Z,101980.94
2022-12-18T00:31:36.370Z,101983.00
2022-12-18T00:34:05.384Z,101979.84
2022-12-18T00:36:34.205Z,101984.34
2022-12-18T00:39:02.310Z,101988.75
2022-12-18T00:41:47.585Z,101982.31
2022-12-18T00:44:16.010Z,101996.78
2022-12-18T00:46:43.613Z,102004.53
2022-12-18T00:49:12.309Z,102004.16
2022-12-18T00:51:39.673Z,102005.59
2022-12-18T00:54:07.475Z,102014.09
2022-12-18T00:56:34.811Z,102006.56
2022-12-18T00:59:02.166Z,102004.06
2022-12-18T01:01:29.661Z,102001.38
2022-12-18T01:03:57.818Z,102000.06
2022-12-18T01:06:26.519Z,101990.94
2022-12-18T01:08:53.865Z,101996.63
2022-12-18T01:11:21.985Z,102007.78
2022-12-18T01:13:49.568Z,102012.75
2022-12-18T01:16:18.216Z,102005.84
2022-12-18T01:18:45.942Z,102015.66
2022-12-18T01:21:14.518Z,102015.28
2022-12-18T01:23:46.968Z,102018.81
2022-12-18T01:26:16.190Z,102017.81
2022-12-18T01:28:44.602Z,102028.84
2022-12-18T01:31:16.365Z,102023.81
2022-12-18T01:33:44.040Z,102029.22
2022-12-18T01:36:16.838Z,102030.09
2022-12-18T01:38:45.505Z,102029.53
2022-12-18T01:41:12.825Z,102033.66
2022-12-18T01:43:47.579Z,102030.22
2022-12-18T01:46:15.033Z,102030.09
2022-12-18T01:48:42.735Z,102023.94
2022-12-18T01:51:11.563Z,102020.63
2022-12-18T01:53:40.475Z,102024.97
2022-12-18T01:56:10.303Z,102026.84
2022-12-18T01:58:42.253Z,102023.19
2022-12-18T02:01:10.079Z,102027.31
2022-12-18T02:03:38.529Z,102028.84
2022-12-18T02:06:11.705Z,102032.81
2022-12-18T02:08:42.052Z,102025.16
2022-12-18T02:11:13.170Z,102026.66
2022-12-18T02:13:44.373Z,102043.25
2022-12-18T02:16:15.774Z,102038.09
2022-12-18T02:18:45.431Z,102030.34
2022-12-18T02:21:20.265Z,102033.09
2022-12-18T02:23:51.575Z,102033.84
2022-12-18T02:26:22.602Z,102027.13
2022-12-18T02:28:53.402Z,102023.72
2022-12-18T02:31:23.393Z,102026.75
2022-12-18T02:33:51.410Z,102039.50
2022-12-18T02:36:19.551Z,102043.28
2022-12-18T02:38:47.960Z,102044.78
2022-12-18T02:41:16.434Z,102034.53
2022-12-18T02:43:49.355Z,102036.63
2022-12-18T02:46:28.449Z,102037.00
2022-12-18T02:48:58.559Z,102043.09
2022-12-18T02:51:30.986Z,102042.19
2022-12-18T02:54:02.925Z,102042.22
2022-12-18T02:56:35.875Z,102034.31
2022-12-18T02:59:06.518Z,102035.28
2022-12-18T03:01:35.963Z,102040.53
2022-12-18T03:04:06.107Z,102041.81
2022-12-18T03:06:35.473Z,102042.72
2022-12-18T03:09:07.911Z,102037.03
2022-12-18T03:11:53.591Z,102044.66
2022-12-18T03:14:22.961Z,102036.31
2022-12-18T03:16:51.928Z,102038.06
2022-12-18T03:19:23.085Z,102044.50
2022-12-18T03:21:53.427Z,102046.91
2022-12-18T03:24:22.174Z,102047.97
2022-12-18T03:26:52.671Z,102047.91
2022-12-18T03:29:22.095Z,102054.22
2022-12-18T03:31:53.266Z,102046.25
2022-12-18T03:34:23.886Z,102051.09
2022-12-18T03:36:51.283Z,102047.69
2022-12-18T03:39:18.669Z,102049.91
2022-12-18T03:41:48.075Z,102055.06
2022-12-18T03:44:17.129Z,102062.47
2022-12-18T03:46:48.639Z,102057.66
2022-12-18T03:49:21.327Z,102059.97
2022-12-18T03:51:51.322Z,102058.53
2022-12-18T03:54:19.873Z,102063.34
2022-12-18T03:56:48.793Z,102059.78
2022-12-18T03:59:17.192Z,102068.81
2022-12-18T04:01:47.242Z,102077.63
2022-12-18T04:04:15.344Z,102076.41
2022-12-18T04:06:45.591Z,102074.41
2022-12-18T04:09:13.054Z,102070.28
2022-12-18T04:11:41.570Z,102068.34
2022-12-18T04:14:11.852Z,102061.63
2022-12-18T04:16:41.876Z,102075.22
2022-12-18T04:19:09.234Z,102073.72
2022-12-18T04:21:36.609Z,102081.13
2022-12-18T04:24:05.852Z,102085.81
2022-12-18T04:26:33.195Z,102081.09
2022-12-18T04:29:00.527Z,102079.66
2022-12-18T04:31:27.931Z,102090.09
2022-12-18T04:33:55.307Z,102072.53
2022-12-18T04:36:22.724Z,102083.72
2022-12-18T04:38:50.051Z,102087.91
2022-12-18T04:41:18.722Z,102081.59
2022-12-18T04:43:46.070Z,102088.22
2022-12-18T04:46:13.485Z,102093.69
2022-12-18T04:48:40.835Z,102091.50
2022-12-18T04:51:08.556Z,102099.50
2022-12-18T04:53:35.898Z,102100.44
2022-12-18T04:56:07.390Z,102103.81
2022-12-18T04:58:36.183Z,102105.47
2022-12-18T05:01:04.197Z,102092.28
2022-12-18T05:03:31.915Z,102087.81
2022-12-18T05:05:59.312Z,102093.00
2022-12-18T05:08:26.708Z,102090.03
2022-12-18T05:10:59.991Z,102093.81
2022-12-18T05:13:27.477Z,102092.47
2022-12-18T05:15:56.360Z,102093.44
2022-12-18T05:18:24.375Z,102099.56
2022-12-18T05:20:51.780Z,102092.34
2022-12-18T05:23:19.655Z,102093.22
2022-12-18T05:25:48.579Z,102096.66
2022-12-18T05:28:15.921Z,102091.81
2022-12-18T05:30:43.243Z,102100.84
2022-12-18T05:33:11.927Z,102106.31
2022-12-18T05:35:39.252Z,102094.53
2022-12-18T05:38:06.595Z,102100.56
2022-12-18T05:40:33.976Z,102091.69
2022-12-18T05:43:01.293Z,102094.06
2022-12-18T05:45:28.708Z,102089.97
2022-12-18T05:47:56.024Z,102104.00
2022-12-18T05:50:25.743Z,102106.47
2022-12-18T05:52:53.087Z,102099.69
2022-12-18T05:55:20.394Z,102097.56
2022-12-18T05:57:47.721Z,102111.44
2022-12-18T06:00:15.712Z,102108.38
2022-12-18T06:02:43.179Z,102108.00
2022-12-18T06:05:11.788Z,102113.13
2022-12-18T06:07:40.488Z,102104.16
2022-12-18T06:10:08.094Z,102123.50
2022-12-18T06:12:35.432Z,102126.09
2022-12-18T06:15:02.804Z,102120.34
2022-12-18T06:17:30.853Z,102124.53
2022-12-18T06:19:58.154Z,102117.91
2022-12-18T06:22:25.950Z,102129.25
2022-12-18T06:24:54.640Z,102129.75
2022-12-18T06:27:21.981Z,102129.81
2022-12-18T06:29:49.313Z,102126.00
2022-12-18T06:32:16.879Z,102121.28
2022-12-18T06:34:44.241Z,102127.53
2022-12-18T06:37:11.710Z,102137.41
2022-12-18T06:39:39.017Z,102144.03
2022-12-18T06:42:07.825Z,102138.75
2022-12-18T06:44:35.133Z,102134.19
2022-12-18T06:47:02.495Z,102138.13
2022-12-18T06:49:30.748Z,102130.88
2022-12-18T06:51:58.137Z,102144.16
2022-12-18T06:54:25.837Z,102144.91
2022-12-18T06:56:53.143Z,102148.91
2022-12-18T06:59:21.834Z,102145.69
2022-12-18T07:01:49.308Z,102151.13
2022-12-18T07:04:16.754Z,102161.56
2022-12-18T07:06:44.109Z,102159.47
2022-12-18T07:09:11.460Z,102163.69
2022-12-18T07:11:38.811Z,102164.28
2022-12-18T07:14:06.359Z,102171.63
2022-12-18T07:16:35.100Z,102165.94
2022-12-18T07:19:02.445Z,102166.25
2022-12-18T07:21:29.778Z,102172.75
2022-12-18T07:23:57.462Z,102169.75
2022-12-18T07:26:24.811Z,102168.19
2022-12-18T07:28:52.485Z,102164.97
2022-12-18T07:31:21.551Z,102168.97
2022-12-18T07:33:51.198Z,102170.13
2022-12-18T07:36:18.922Z,102179.00
2022-12-18T07:38:48.314Z,102176.75
2022-12-18T07:41:15.916Z,102188.84
2022-12-18T07:43:44.174Z,102191.25
2022-12-18T07:46:14.550Z,102194.22
2022-12-18T07:48:42.052Z,102187.09
2022-12-18T07:51:13.247Z,102195.66
2022-12-18T07:53:41.260Z,102199.59
2022-12-18T07:56:27.860Z,102192.84
2022-12-18T07:58:55.799Z,102195.44
2022-12-18T08:01:23.365Z,102201.88
2022-12-18T08:03:52.530Z,102191.53
2022-12-18T08:06:23.241Z,102187.31
2022-12-18T08:08:52.783Z,102180.59
2022-12-18T08:11:20.099Z,102169.78
2022-12-18T08:13:48.946Z,102172.16
2022-12-18T08:16:16.967Z,102175.78
2022-12-18T08:18:44.835Z,102168.41
2022-12-18T08:21:12.616Z,102167.66
2022-12-18T08:23:43.266Z,102164.03
2022-12-18T08:26:11.325Z,102162.59
2022-12-18T08:28:38.726Z,102161.75
2022-12-18T08:31:06.513Z,102172.63
2022-12-18T08:33:34.299Z,102168.16
2022-12-18T08:36:02.241Z,102164.94
2022-12-18T08:38:29.977Z,102163.88
2022-12-18T08:41:02.154Z,102168.66
2022-12-18T08:43:47.158Z,102161.50
2022-12-18T08:46:14.748Z,102167.19
2022-12-18T08:48:42.157Z,102168.47
2022-12-18T08:51:10.475Z,102162.66
2022-12-18T08:53:38.367Z,102168.31
2022-12-18T08:56:07.899Z,102170.44
2022-12-18T08:58:35.410Z,102169.31
2022-12-18T09:01:03.457Z,102173.47
2022-12-18T09:03:31.217Z,102176.03
2022-12-18T09:05:58.787Z,102173.59
2022-12-18T09:08:26.226Z,102163.50
2022-12-18T09:10:53.763Z,102156.03
2022-12-18T09:13:22.982Z,102154.03
2022-12-18T09:15:51.538Z,102159.41
2022-12-18T09:18:19.909Z,102167.56
2022-12-18T09:20:47.238Z,102181.75
2022-12-18T09:23:14.948Z,102175.47
2022-12-18T09:25:42.344Z,102187.19
2022-12-18T09:28:12.914Z,102184.88
2022-12-18T09:30:44.273Z,102190.53
2022-12-18T09:33:11.628Z,102188.22
2022-12-18T09:35:40.109Z,102181.56
2022-12-18T09:38:08.105Z,102181.91
2022-12-18T09:40:36.810Z,102188.34
2022-12-18T09:43:07.409Z,102179.13
2022-12-18T09:45:40.984Z,102187.28
2022-12-18T09:48:12.519Z,102179.66
2022-12-18T09:50:41.715Z,102179.84
2022-12-18T09:53:14.003Z,102175.72
2022-12-18T09:55:43.064Z,102170.69
2022-12-18T09:58:17.458Z,102166.28
2022-12-18T10:00:45.254Z,102169.00
2022-12-18T10:03:16.147Z,102156.00
2022-12-18T10:05:48.791Z,102153.56
2022-12-18T10:08:21.356Z,102147.44
2022-12-18T10:10:50.479Z,102145.03
2022-12-18T10:13:23.723Z,102135.31
2022-12-18T10:15:59.660Z,102127.53
2022-12-18T10:18:34.264Z,102128.47
2022-12-18T10:21:05.844Z,102118.69
2022-12-18T10:23:36.592Z,102119.78
2022-12-18T10:26:05.354Z,102113.56
2022-12-18T10:28:34.400Z,102112.94
2022-12-18T10:31:01.777Z,102109.31
2022-12-18T10:33:33.083Z,102098.00
2022-12-18T10:36:01.036Z,102098.03
2022-12-18T10:38:29.958Z,102095.38
2022-12-18T10:40:58.279Z,102096.47
2022-12-18T10:43:26.937Z,102083.50
2022-12-18T10:46:02.191Z,102075.69
2022-12-18T10:48:32.112Z,102071.38
2022-12-18T10:51:10.876Z,102070.38
2022-12-18T10:53:42.067Z,102077.38
2022-12-18T10:56:09.412Z,102077.38
2022-12-18T10:58:37.722Z,102077.41
2022-12-18T11:01:10.377Z,102081.88
2022-12-18T11:03:40.204Z,102080.78
2022-12-18T11:06:09.099Z,102081.88
2022-12-18T11:08:36.510Z,102087.97
2022-12-18T11:11:04.028Z,102074.81
2022-12-18T11:13:32.678Z,102073.97
2022-12-18T11:16:00.922Z,102065.38
2022-12-18T11:18:29.727Z,102053.91
2022-12-18T11:20:59.839Z,102063.47
2022-12-18T11:23:27.765Z,102053.91
2022-12-18T11:25:56.940Z,102041.63
2022-12-18T11:28:28.745Z,102045.06
2022-12-18T11:31:11.497Z,102046.00
2022-12-18T11:33:53.164Z,102045.28
2022-12-18T11:36:31.474Z,102046.22
2022-12-18T11:39:00.928Z,102043.72
2022-12-18T11:41:45.802Z,102049.88
2022-12-18T11:44:16.621Z,102048.94
2022-12-18T11:46:49.455Z,102041.81
2022-12-18T11:49:21.984Z,102045.25
2022-12-18T11:51:53.500Z,102043.38
2022-12-18T11:54:20.823Z,102049.53
2022-12-18T11:56:51.273Z,102053.03
2022-12-18T11:59:26.565Z,102056.56
2022-12-18T12:01:57.642Z,102060.09
2022-12-18T12:04:37.936Z,102054.81
2022-12-18T12:07:14.821Z,102056.38
2022-12-18T12:09:48.196Z,102053.75
2022-12-18T12:12:26.082Z,102063.53
2022-12-18T12:14:57.086Z,102065.22
2022-12-18T12:17:30.429Z,102069.59
2022-12-18T12:20:02.494Z,102068.66
2022-12-18T12:22:35.468Z,102069.63
2022-12-18T12:25:20.115Z,102079.09
2022-12-18T12:27:50.837Z,102079.91
2022-12-18T12:30:20.880Z,102078.06
2022-12-18T12:32:55.788Z,102079.97
2022-12-18T12:35:30.294Z,102078.28
2022-12-18T12:38:05.420Z,102092.22
2022-12-18T12:40:56.984Z,102102.75
2022-12-18T12:43:25.992Z,102100.25
2022-12-18T12:45:55.675Z,102101.94
2022-12-18T12:48:29.513Z,102108.13
2022-12-18T12:50:57.305Z,102086.09
2022-12-18T12:53:29.374Z,102081.69
2022-12-18T12:55:57.824Z,102078.06
2022-12-18T12:58:29.182Z,102073.59
2022-12-18T13:00:59.527Z,102091.06
2022-12-18T13:03:34.408Z,102076.97
2022-12-18T13:06:04.629Z,102083.13
2022-12-18T13:08:52.700Z,102076.00
2022-12-18T13:11:49.360Z,102065.38
2022-12-18T13:14:22.991Z,102067.84
2022-12-18T13:16:51.305Z,102067.78
2022-12-18T13:19:24.500Z,102072.22
2022-12-18T13:21:55.233Z,102065.97
2022-12-18T13:24:26.810Z,102075.50
2022-12-18T13:26:54.515Z,102082.47
2022-12-18T13:29:40.638Z,102078.06
2022-12-18T13:32:20.836Z,102076.28
2022-12-18T13:34:50.151Z,102083.97
2022-12-18T13:37:36.178Z,102082.06
2022-12-18T13:40:28.120Z,102076.03
2022-12-18T13:43:14.808Z,102078.53
2022-12-18T13:45:49.807Z,102082.13
2022-12-18T13:48:25.117Z,102079.50
2022-12-18T13:51:04.322Z,102078.59
2022-12-18T13:53:33.871Z,102076.00
2022-12-18T13:56:03.991Z,102069.94
2022-12-18T13:58:31.446Z,102062.88
2022-12-18T14:01:00.108Z,102059.28
2022-12-18T14:03:29.192Z,102075.03
2022-12-18T14:05:59.759Z,102073.19
2022-12-18T14:08:29.358Z,102071.47
2022-12-18T14:10:57.121Z,102079.22
2022-12-18T14:13:28.929Z,102083.56
2022-12-18T14:15:57.490Z,102078.22
2022-12-18T14:18:27.528Z,102087.69
2022-12-18T14:20:56.790Z,102078.72
2022-12-18T14:23:31.189Z,102081.47
2022-12-18T14:26:02.228Z,102075.19
2022-12-18T14:28:34.485Z,102067.41
2022-12-18T14:31:01.897Z,102063.69
2022-12-18T14:33:29.472Z,102068.06
2022-12-18T14:35:59.409Z,102064.53
2022-12-18T14:38:29.612Z,102044.38
2022-12-18T14:40:58.936Z,102045.22
2022-12-18T14:43:26.965Z,102054.75
2022-12-18T14:45:56.008Z,102053.81
2022-12-18T14:48:25.842Z,102054.66
2022-12-18T14:50:57.554Z,102058.84
2022-12-18T14:53:26.723Z,102063.38
2022-12-18T14:55:54.166Z,102051.03
2022-12-18T14:58:21.560Z,102061.50
2022-12-18T15:00:48.935Z,102069.38
2022-12-18T15:03:20.146Z,102060.47
2022-12-18T15:05:47.593Z,102063.91
2022-12-18T15:08:32.458Z,102062.97
2022-12-18T15:11:00.309Z,102060.25
2022-12-18T15:13:28.805Z,102051.44
2022-12-18T15:15:57.179Z,102053.13
2022-12-18T15:18:31.979Z,102048.66
2022-12-18T15:21:01.009Z,102049.59
2022-12-18T15:23:30.029Z,102053.00
2022-12-18T15:25:58.444Z,102044.41
2022-12-18T15:28:27.392Z,102043.31
2022-12-18T15:31:01.854Z,102049.50
2022-12-18T15:33:32.487Z,102048.59
2022-12-18T15:36:00.287Z,102056.38
2022-12-18T15:38:27.731Z,102042.28
2022-12-18T15:40:55.568Z,102043.25
2022-12-18T15:43:34.884Z,102043.13
2022-12-18T15:46:02.806Z,102038.00
2022-12-18T15:48:31.608Z,102031.94
2022-12-18T15:50:59.597Z,102035.31
2022-12-18T15:53:29.606Z,102037.19
2022-12-18T15:56:14.846Z,102035.31
2022-12-18T15:58:42.164Z,102041.44
2022-12-18T16:01:10.631Z,102035.31
2022-12-18T16:03:39.858Z,102035.34
2022-12-18T16:06:07.852Z,102029.16
2022-12-18T16:08:35.979Z,102037.94
2022-12-18T16:11:03.506Z,102025.66
2022-12-18T16:13:31.032Z,102024.78
2022-12-18T16:15:58.757Z,102019.72
2022-12-18T16:18:26.447Z,102020.56
2022-12-18T16:20:55.135Z,102018.84
2022-12-18T16:23:22.530Z,102017.16
2022-12-18T16:25:49.860Z,102008.38
2022-12-18T16:28:17.190Z,102010.03
2022-12-18T16:30:45.713Z,102020.56
2022-12-18T16:33:13.144Z,102021.38
2022-12-18T16:35:40.495Z,102016.16
2022-12-18T16:38:09.167Z,102014.31
2022-12-18T16:40:57.484Z,102014.47
2022-12-18T16:43:25.127Z,102012.75
2022-12-18T16:45:52.474Z,102010.91
2022-12-18T16:48:19.786Z,102002.22
2022-12-18T16:50:47.156Z,102005.66
2022-12-18T16:53:15.905Z,102004.00
2022-12-18T16:55:43.219Z,102003.97
2022-12-18T16:58:10.562Z,102004.06
2022-12-18T17:00:39.448Z,102006.66
2022-12-18T17:03:07.016Z,102011.91
2022-12-18T17:05:35.174Z,102000.59
2022-12-18T17:08:02.534Z,101998.72
2022-12-18T17:10:31.343Z,101991.75
2022-12-18T17:12:59.955Z,101984.88
2022-12-18T17:15:27.349Z,101987.38
2022-12-18T17:17:54.674Z,101982.31
2022-12-18T17:20:23.381Z,101988.31
2022-12-18T17:22:50.750Z,101995.28
2022-12-18T17:25:18.227Z,101974.41
2022-12-18T17:27:46.874Z,101977.06
2022-12-18T17:30:14.580Z,101971.06
2022-12-18T17:32:41.922Z,101970.28
2022-12-18T17:35:09.610Z,101970.22
2022-12-18T17:37:37.137Z,101965.03
2022-12-18T17:40:04.801Z,101967.63
2022-12-18T17:42:32.331Z,101972.84
2022-12-18T17:45:01.010Z,101970.19
2022-12-18T17:47:28.405Z,101964.91
2022-12-18T17:49:55.812Z,101965.03
2022-12-18T17:52:24.579Z,101964.19
2022-12-18T17:54:52.829Z,101956.31
2022-12-18T17:57:20.171Z,101941.56
2022-12-18T17:59:47.817Z,101962.56
2022-12-18T18:02:16.603Z,101962.53
2022-12-18T18:04:44.928Z,101952.97
2022-12-18T18:07:12.258Z,101945.09
2022-12-18T18:09:39.627Z,101953.03
2022-12-18T18:12:24.729Z,101948.75
2022-12-18T18:14:52.208Z,101948.81
2022-12-18T18:17:21.301Z,101951.44
2022-12-18T18:19:49.631Z,101944.53
2022-12-18T18:22:17.241Z,101946.28
2022-12-18T18:24:46.684Z,101941.91
2022-12-18T18:27:14.878Z,101939.31
2022-12-18T18:29:42.471Z,101941.16
2022-12-18T18:32:09.814Z,101944.69
2022-12-18T18:34:41.414Z,101940.31
2022-12-18T18:37:08.747Z,101935.97
2022-12-18T18:39:36.587Z,101923.66
2022-12-18T18:42:04.020Z,101921.22
2022-12-18T18:44:31.567Z,101915.00
2022-12-18T18:46:59.743Z,101925.50
2022-12-18T18:49:29.843Z,101917.69
2022-12-18T18:51:59.054Z,101915.94
2022-12-18T18:54:26.795Z,101909.00
2022-12-18T18:59:41.460Z,101909.84
2022-12-18T19:02:10.270Z,101907.16
2022-12-18T19:04:46.375Z,101905.41
2022-12-18T19:07:20.367Z,101892.34
2022-12-18T19:09:59.598Z,101894.13
2022-12-18T19:12:49.446Z,101892.34
2022-12-18T19:15:16.770Z,101883.53
2022-12-18T19:17:46.681Z,101879.25
2022-12-18T19:20:15.081Z,101878.34
2022-12-18T19:22:44.799Z,101866.91
2022-12-18T19:25:19.505Z,101872.13
2022-12-18T19:27:47.159Z,101865.16
2022-12-18T19:30:14.589Z,101869.59
2022-12-18T19:32:42.101Z,101869.50
2022-12-18T19:35:10.275Z,101858.31
2022-12-18T19:37:39.014Z,101853.91
2022-12-18T19:40:12.283Z,101850.47
2022-12-18T19:42:40.067Z,101836.47
2022-12-18T19:45:07.944Z,101844.38
2022-12-18T19:47:35.412Z,101831.34
2022-12-18T19:50:02.893Z,101826.03
2022-12-18T19:52:30.476Z,101831.38
2022-12-18T19:54:57.825Z,101839.16
2022-12-18T19:57:26.490Z,101826.13
2022-12-18T19:59:53.885Z,101837.44
2022-12-18T20:02:21.558Z,101834.00
2022-12-18T20:04:49.679Z,101823.50
2022-12-18T20:07:16.986Z,101824.47
2022-12-18T20:09:44.842Z,101818.19
2022-12-18T20:12:13.058Z,101822.53
2022-12-18T20:14:41.921Z,101823.47
2022-12-18T20:17:09.404Z,101821.75
2022-12-18T20:19:37.033Z,101828.69
2022-12-18T20:22:04.421Z,101826.03
2022-12-18T20:24:31.796Z,101829.66
2022-12-18T20:26:59.144Z,101823.53
2022-12-18T20:29:26.495Z,101833.97
2022-12-18T20:31:55.204Z,101821.84
2022-12-18T20:34:22.587Z,101824.53
2022-12-18T20:36:50.140Z,101813.13
2022-12-18T20:39:18.734Z,101813.94
2022-12-18T20:41:46.552Z,101816.63
2022-12-18T20:44:22.500Z,101817.53
2022-12-18T20:46:52.211Z,101809.69
2022-12-18T20:49:20.888Z,101808.03
2022-12-18T20:51:50.434Z,101796.66
2022-12-18T20:54:17.903Z,101798.38
2022-12-18T20:56:45.251Z,101778.25
2022-12-18T20:59:12.873Z,101780.03
2022-12-18T21:01:41.596Z,101773.97
2022-12-18T21:04:15.351Z,101788.88
2022-12-18T21:06:51.322Z,101795.91
2022-12-18T21:09:20.325Z,101790.66
2022-12-18T21:12:05.250Z,101795.03
2022-12-18T21:14:32.575Z,101798.59
2022-12-18T21:17:01.928Z,101802.88
2022-12-18T21:19:29.987Z,101804.66
2022-12-18T21:21:58.911Z,101805.50
2022-12-18T21:24:26.581Z,101812.56
2022-12-18T21:26:56.167Z,101807.28
2022-12-18T21:29:24.890Z,101808.19
2022-12-18T21:31:52.460Z,101804.75
2022-12-18T21:34:21.186Z,101795.91
2022-12-18T21:36:48.983Z,101793.19
2022-12-18T21:39:18.178Z,101798.44
2022-12-18T21:42:04.871Z,101796.75
2022-12-18T21:44:37.310Z,101802.88
2022-12-18T22:01:41.500Z,101790.59
2022-12-18T22:04:08.956Z,101786.19
2022-12-18T22:06:36.405Z,101788.81
2022-12-18T22:09:04.183Z,101779.19
2022-12-18T22:11:31.847Z,101766.97
2022-12-18T22:13:59.500Z,101776.66
2022-12-18T22:16:26.898Z,101769.56
2022-12-18T22:18:55.853Z,101765.25
2022-12-18T22:21:29.007Z,101766.97
2022-12-18T22:23:57.521Z,101773.97
2022-12-18T22:26:25.758Z,101780.03
2022-12-18T22:29:10.763Z,101777.47
2022-12-18T22:31:38.319Z,101770.41
2022-12-18T22:34:07.291Z,101770.41
2022-12-18T22:36:38.310Z,101769.59
2022-12-18T22:39:07.525Z,101760.81
2022-12-18T22:41:35.579Z,101754.66
2022-12-18T22:44:02.932Z,101756.31
2022-12-18T22:46:31.743Z,101754.59
2022-12-18T22:48:59.239Z,101748.47
2022-12-18T22:51:27.891Z,101751.13
2022-12-18T22:53:55.323Z,101758.19
2022-12-18T22:56:22.670Z,101745.97
2022-12-18T22:58:50.468Z,101730.22
2022-12-18T23:01:22.125Z,101724.94
2022-12-18T23:03:49.639Z,101720.59
2022-12-18T23:06:17.320Z,101725.84
2022-12-18T23:08:45.988Z,101718.88
2022-12-18T23:11:13.686Z,101715.38
2022-12-18T23:13:42.766Z,101711.84
2022-12-18T23:16:11.010Z,101715.28
2022-12-18T23:18:38.473Z,101710.06
2022-12-18T23:21:06.694Z,101699.50
2022-12-18T23:23:35.821Z,101685.50
2022-12-18T23:26:05.746Z,101681.13
2022-12-18T23:28:33.763Z,101688.25
2022-12-18T23:31:06.409Z,101683.78
2022-12-18T23:33:37.688Z,101679.47
2022-12-18T23:36:05.847Z,101686.47
2022-12-18T23:38:34.187Z,101667.19
2022-12-18T23:41:07.392Z,101661.06
2022-12-18T23:43:36.115Z,101670.69
2022-12-18T23:46:03.533Z,101654.16
2022-12-18T23:48:30.977Z,101648.00
2022-12-18T23:50:58.296Z,101642.69
2022-12-18T23:53:25.625Z,101626.06
2022-12-18T23:55:52.959Z,101620.81
2022-12-18T23:58:22.002Z,101625.13
